createdAt,value
2022-12-12T00:02:30.225Z,97006.38
2022-12-12T00:07:31.911Z,97000.97
2022-12-12T00:12:33.463Z,96999.75
2022-12-12T00:17:36.238Z,97006.41
2022-12-12T00:22:37.750Z,96996.50
2022-12-12T00:27:39.258Z,96991.13
2022-12-12T00:32:40.735Z,96995.44
2022-12-12T00:37:42.204Z,96992.66
2022-12-12T00:42:43.596Z,96990.59
2022-12-12T00:47:44.990Z,96999.19
2022-12-12T00:52:46.390Z,97001.78
2022-12-12T00:57:47.863Z,97002.63
2022-12-12T01:02:50.340Z,97004.16
2022-12-12T01:07:52.378Z,97002.81
2022-12-12T01:12:53.850Z,97011.69
2022-12-12T01:17:55.328Z,97010.03
2022-12-12T01:22:56.841Z,97010.34
2022-12-12T01:27:59.331Z,97009.00
2022-12-12T01:33:00.831Z,97006.81
2022-12-12T01:38:02.273Z,97010.00
2022-12-12T01:43:10.208Z,97013.16
2022-12-12T01:48:14.069Z,97012.22
2022-12-12T01:53:18.651Z,97013.72
2022-12-12T01:58:20.291Z,97023.28
2022-12-12T02:03:22.602Z,97015.69
2022-12-12T02:08:25.424Z,97020.91
2022-12-12T02:13:30.696Z,97019.22
2022-12-12T02:18:56.984Z,97014.00
2022-12-12T02:24:20.420Z,97011.53
2022-12-12T02:30:02.211Z,97010.13
2022-12-12T02:35:20.181Z,97011.78
2022-12-12T02:40:24.646Z,97019.38
2022-12-12T02:45:38.461Z,97011.25
2022-12-12T02:50:41.940Z,97016.63
2022-12-12T02:55:43.389Z,97012.63
2022-12-12T03:01:11.083Z,97019.75
2022-12-12T03:07:05.188Z,97013.13
2022-12-12T03:12:51.877Z,97009.41
2022-12-12T03:18:19.593Z,97008.56
2022-12-12T03:23:27.600Z,97004.56
2022-12-12T03:28:34.767Z,97003.47
2022-12-12T03:33:51.409Z,96999.78
2022-12-12T03:38:58.420Z,97000.47
2022-12-12T03:44:11.299Z,97000.22
2022-12-12T03:49:29.654Z,96999.94
2022-12-12T03:54:39.692Z,97001.22
2022-12-12T03:59:53.150Z,97003.69
2022-12-12T04:05:20.233Z,97010.47
2022-12-12T04:10:43.742Z,97004.38
2022-12-12T04:15:51.805Z,97007.13
2022-12-12T04:21:18.173Z,97006.31
2022-12-12T04:26:41.573Z,97016.78
2022-12-12T04:31:58.770Z,97009.63
2022-12-12T04:37:03.641Z,97011.28
2022-12-12T04:42:08.005Z,97017.50
2022-12-12T04:47:11.229Z,97023.41
2022-12-12T04:52:13.848Z,97018.44
2022-12-12T04:57:27.785Z,97029.63
2022-12-12T05:02:39.413Z,97032.81
2022-12-12T05:07:44.217Z,97027.56
2022-12-12T05:12:48.737Z,97032.97
2022-12-12T05:18:01.259Z,97040.69
2022-12-12T05:23:02.811Z,97046.06
2022-12-12T05:28:04.648Z,97041.91
2022-12-12T05:33:06.178Z,97051.56
2022-12-12T05:38:07.665Z,97051.84
2022-12-12T05:43:09.239Z,97044.25
2022-12-12T05:48:10.894Z,97046.31
2022-12-12T05:53:12.360Z,97054.53
2022-12-12T05:58:13.808Z,97054.53
2022-12-12T06:03:15.797Z,97065.03
2022-12-12T06:08:20.903Z,97060.06
2022-12-12T06:13:23.653Z,97061.97
2022-12-12T06:18:25.453Z,97068.06
2022-12-12T06:23:26.989Z,97067.91
2022-12-12T06:28:28.515Z,97073.97
2022-12-12T06:33:32.042Z,97079.38
2022-12-12T06:38:34.710Z,97077.44
2022-12-12T06:43:36.321Z,97093.16
2022-12-12T06:48:37.831Z,97089.03
2022-12-12T06:53:39.306Z,97085.13
2022-12-12T06:58:40.861Z,97086.47
2022-12-12T07:03:42.334Z,97088.28
2022-12-12T07:08:43.925Z,97097.53
2022-12-12T07:13:45.896Z,97091.31
2022-12-12T07:18:47.478Z,97110.25
2022-12-12T07:23:49.053Z,97111.09
2022-12-12T07:28:51.518Z,97126.81
2022-12-12T07:33:54.464Z,97123.47
2022-12-12T07:38:55.897Z,97127.06
2022-12-12T07:43:57.339Z,97130.38
2022-12-12T07:48:58.837Z,97134.41
2022-12-12T07:54:00.614Z,97133.06
2022-12-12T07:59:02.146Z,97134.56
2022-12-12T08:04:06.986Z,97139.00
2022-12-12T08:09:08.536Z,97144.22
2022-12-12T08:14:13.067Z,97149.78
2022-12-12T08:19:15.594Z,97154.50
2022-12-12T08:24:18.104Z,97152.84
2022-12-12T08:29:19.619Z,97156.19
2022-12-12T08:34:21.117Z,97163.34
2022-12-12T08:39:22.667Z,97175.47
2022-12-12T08:44:24.121Z,97166.28
2022-12-12T08:49:25.675Z,97173.50
2022-12-12T08:54:27.999Z,97171.56
2022-12-12T08:59:30.001Z,97175.88
2022-12-12T09:04:31.848Z,97184.81
2022-12-12T09:09:33.323Z,97196.25
2022-12-12T09:14:34.801Z,97195.16
2022-12-12T09:19:36.261Z,97193.50
2022-12-12T09:24:37.814Z,97205.66
2022-12-12T09:29:40.047Z,97200.72
2022-12-12T09:34:41.614Z,97208.63
2022-12-12T09:39:43.509Z,97209.22
2022-12-12T09:44:45.386Z,97210.47
2022-12-12T09:49:51.316Z,97205.81
2022-12-12T09:54:52.859Z,97214.06
2022-12-12T10:00:10.447Z,97207.94
2022-12-12T10:05:41.215Z,97196.75
2022-12-12T10:10:45.908Z,97209.19
2022-12-12T10:16:03.230Z,97210.38
2022-12-12T10:21:13.818Z,97217.88
2022-12-12T10:26:22.060Z,97221.06
2022-12-12T10:31:47.304Z,97224.38
2022-12-12T10:36:55.225Z,97222.28
2022-12-12T10:42:05.954Z,97221.69
2022-12-12T10:47:10.648Z,97222.81
2022-12-12T10:52:18.489Z,97224.19
2022-12-12T10:57:26.040Z,97221.16
2022-12-12T11:02:42.340Z,97220.41
2022-12-12T11:07:50.303Z,97218.59
2022-12-12T11:12:56.995Z,97211.25
2022-12-12T11:18:02.739Z,97224.25
2022-12-12T11:23:18.611Z,97221.75
2022-12-12T11:28:24.118Z,97225.38
2022-12-12T11:33:35.290Z,97228.72
2022-12-12T11:38:41.673Z,97228.81
2022-12-12T11:43:49.185Z,97231.97
2022-12-12T11:48:53.786Z,97225.00
2022-12-12T11:53:56.928Z,97229.47
2022-12-12T11:59:10.625Z,97226.72
2022-12-12T12:04:40.566Z,97222.47
2022-12-12T12:09:54.253Z,97217.66
2022-12-12T12:15:07.139Z,97226.81
2022-12-12T12:20:26.153Z,97220.06
2022-12-12T12:25:30.594Z,97220.47
2022-12-12T12:30:50.679Z,97221.16
2022-12-12T12:36:07.640Z,97226.03
2022-12-12T12:41:45.981Z,97220.63
2022-12-12T12:47:08.675Z,97229.47
2022-12-12T12:52:17.226Z,97220.19
2022-12-12T12:57:28.233Z,97229.59
2022-12-12T13:02:51.734Z,97228.66
2022-12-12T13:07:57.484Z,97230.44
2022-12-12T13:13:29.611Z,97235.94
2022-12-12T13:18:44.500Z,97248.66
2022-12-12T13:24:12.648Z,97262.59
2022-12-12T13:29:35.219Z,97258.16
2022-12-12T13:34:40.521Z,97266.09
2022-12-12T13:39:42.249Z,97261.09
2022-12-12T13:44:47.167Z,97266.88
2022-12-12T13:50:09.939Z,97279.59
2022-12-12T13:55:11.371Z,97286.03
2022-12-12T14:00:17.810Z,97275.13
2022-12-12T14:05:41.902Z,97284.31
2022-12-12T14:10:49.500Z,97292.56
2022-12-12T14:15:57.174Z,97297.97
2022-12-12T14:21:05.624Z,97302.88
2022-12-12T14:26:29.454Z,97298.97
2022-12-12T14:31:37.787Z,97297.59
2022-12-12T14:36:55.959Z,97302.94
2022-12-12T14:41:58.234Z,97302.50
2022-12-12T14:47:07.470Z,97304.09
2022-12-12T14:52:16.961Z,97300.44
2022-12-12T14:57:22.888Z,97303.53
2022-12-12T15:02:38.694Z,97314.38
2022-12-12T15:07:40.400Z,97326.09
2022-12-12T15:12:44.291Z,97324.03
2022-12-12T15:17:49.534Z,97336.81
2022-12-12T15:22:57.747Z,97343.88
2022-12-12T15:28:01.219Z,97359.91
2022-12-12T15:33:05.771Z,97360.03
2022-12-12T15:38:12.697Z,97363.47
2022-12-12T15:43:18.647Z,97352.91
2022-12-12T15:48:23.114Z,97358.13
2022-12-12T15:53:31.792Z,97363.13
2022-12-12T15:58:36.806Z,97383.69
2022-12-12T16:04:03.942Z,97377.03
2022-12-12T16:09:11.515Z,97376.44
2022-12-12T16:14:40.091Z,97373.97
2022-12-12T16:19:44.635Z,97381.59
2022-12-12T16:24:52.579Z,97385.13
2022-12-12T16:29:54.022Z,97392.06
2022-12-12T16:34:55.547Z,97393.72
2022-12-12T16:39:56.971Z,97395.63
2022-12-12T16:44:58.363Z,97399.66
2022-12-12T16:49:59.751Z,97403.59
2022-12-12T16:55:01.733Z,97406.09
2022-12-12T17:00:04.470Z,97406.09
2022-12-12T17:05:06.530Z,97403.72
2022-12-12T17:10:09.415Z,97406.56
2022-12-12T17:15:19.667Z,97411.06
2022-12-12T17:20:21.663Z,97412.16
2022-12-12T17:25:23.624Z,97413.22
2022-12-12T17:30:25.228Z,97416.56
2022-12-12T17:35:26.691Z,97415.91
2022-12-12T17:40:28.162Z,97429.13
2022-12-12T17:45:30.620Z,97425.56
2022-12-12T17:50:34.922Z,97433.13
2022-12-12T17:55:54.971Z,97432.41
2022-12-12T18:01:15.387Z,97434.56
2022-12-12T18:06:18.292Z,97444.78
2022-12-12T18:11:26.790Z,97439.09
2022-12-12T18:16:30.568Z,97426.28
2022-12-12T18:21:59.840Z,97430.81
2022-12-12T18:26:56.354Z,97437.28
2022-12-12T18:31:58.096Z,97439.06
2022-12-12T18:36:59.742Z,97443.72
2022-12-12T18:42:01.158Z,97451.56
2022-12-12T18:47:02.767Z,97457.28
2022-12-12T18:52:04.542Z,97455.50
2022-12-12T18:57:05.977Z,97457.06
2022-12-12T19:02:13.641Z,97460.38
2022-12-12T19:07:18.378Z,97461.09
2022-12-12T19:12:20.408Z,97459.78
2022-12-12T19:17:26.237Z,97459.19
2022-12-12T19:27:49.599Z,97461.78
2022-12-12T19:32:51.029Z,97459.38
2022-12-12T19:37:52.525Z,97445.69
2022-12-12T19:42:53.959Z,97450.03
2022-12-12T19:47:55.417Z,97461.00
2022-12-12T19:52:58.233Z,97461.72
2022-12-12T20:23:12.224Z,97469.38
2022-12-12T20:35:29.540Z,97450.34
2022-12-12T20:42:01.584Z,97462.72
2022-12-12T21:00:17.483Z,97475.97
2022-12-12T21:13:33.196Z,97472.97
2022-12-12T21:20:04.636Z,97480.97
2022-12-12T22:12:33.401Z,97490.34
2022-12-12T22:19:05.976Z,97494.63
2022-12-12T22:26:24.551Z,97480.22
2022-12-12T22:31:52.298Z,97482.16
2022-12-12T22:36:54.028Z,97482.28
2022-12-12T22:41:56.155Z,97475.50
2022-12-12T22:46:57.679Z,97478.94
2022-12-12T22:51:59.714Z,97475.09
2022-12-12T22:57:01.170Z,97467.13
2022-12-12T23:02:02.584Z,97471.56
2022-12-12T23:07:04.136Z,97463.44
2022-12-12T23:12:05.778Z,97470.84
2022-12-12T23:17:07.249Z,97463.94
2022-12-12T23:22:08.868Z,97462.53
2022-12-12T23:27:10.304Z,97460.50
2022-12-12T23:32:11.805Z,97466.34
2022-12-12T23:37:13.435Z,97470.41
2022-12-12T23:42:15.590Z,97463.25
2022-12-12T23:47:17.026Z,97467.53
2022-12-12T23:52:18.445Z,97472.53
2022-12-12T23:57:20.658Z,97471.09
